Time;durP1;ratioP1;P1;durP2;ratioP2;P2;SDS_P1;SDS_P2;PMS_P1;PMS_P2;Temp;Humidity;BMP_temperature;BMP_pressure;BME280_temperature;BME280_humidity;BME280_pressure;Samples;Min_cycle;Max_cycle;Signal;HPM_P1;HPM_P2
2020/12/16 16:31:16;;;;;;;24.57;18.05;;;;;;;3.83;86.22;102924.04;1830316;77;27715;-46
2020/12/16 16:33:44;;;;;;;22.55;15.30;;;;;;;4.87;80.14;102927.63;1798546;78;21596;-46
2020/12/16 16:36:16;;;;;;;15.40;12.65;;;;;;;4.94;79.13;102928.33;1805365;79;21139;-46
2020/12/16 16:38:44;;;;;;;15.08;11.95;;;;;;;4.54;80.39;102928.97;1805046;79;21302;-46
2020/12/16 16:41:12;;;;;;;14.90;12.20;;;;;;;4.45;81.44;102932.91;1735780;81;21302;-46
2020/12/16 16:43:40;;;;;;;14.78;11.48;;;;;;;4.58;81.34;102937.28;1786881;79;21157;-46
2020/12/16 16:46:08;;;;;;;14.75;11.57;;;;;;;4.76;80.91;102933.23;1807119;79;21148;-46
2020/12/16 16:48:37;;;;;;;20.57;14.33;;;;;;;4.93;80.45;102938.16;1793134;79;21116;-46
2020/12/16 16:51:05;;;;;;;16.07;11.43;;;;;;;5.10;79.86;102929.73;1791496;79;21172;-46
2020/12/16 16:53:33;;;;;;;16.67;12.58;;;;;;;5.25;79.22;102928.09;1809121;79;21192;-46
2020/12/16 16:56:03;;;;;;;13.48;12.10;;;;;;;5.39;78.68;102932.02;1741307;82;21179;-46
2020/12/16 16:58:33;;;;;;;19.52;12.78;;;;;;;5.51;78.18;102924.67;1682063;85;21358;-46
2020/12/16 17:01:01;;;;;;;21.05;14.75;;;;;;;5.62;77.56;102925.92;1708781;83;21293;-46
2020/12/16 17:03:29;;;;;;;17.65;14.33;;;;;;;5.75;76.97;102935.80;1700231;83;21202;-46
2020/12/16 17:05:58;;;;;;;17.52;13.85;;;;;;;5.79;76.40;102928.61;1721267;83;21255;-46
2020/12/16 17:08:31;;;;;;;18.48;15.08;;;;;;;6.36;74.38;102933.06;1702875;83;21179;-46
2020/12/16 17:11:00;;;;;;;19.15;15.85;;;;;;;6.45;73.67;102938.49;1706313;83;21290;-46
2020/12/16 17:13:28;;;;;;;24.23;17.17;;;;;;;7.39;70.18;102928.19;1696403;83;21335;-46
2020/12/16 17:15:57;;;;;;;22.15;16.48;;;;;;;6.98;70.76;102928.80;1710058;83;21195;-46
2020/12/16 17:18:25;;;;;;;26.07;16.23;;;;;;;6.84;71.17;102939.20;1698697;83;21204;-45
2020/12/16 17:20:53;;;;;;;19.25;16.02;;;;;;;6.83;70.97;102934.84;1714073;83;21720;-45
2020/12/16 17:23:21;;;;;;;22.87;16.87;;;;;;;6.84;70.76;102936.61;1706249;82;21193;-45
2020/12/16 17:25:59;;;;;;;23.70;17.05;;;;;;;6.88;70.50;102933.27;1817558;79;22350;-46
2020/12/16 17:28:27;;;;;;;24.47;17.60;;;;;;;6.87;70.26;102945.33;1788409;80;21131;-46
2020/12/16 17:30:55;;;;;;;25.43;16.97;;;;;;;7.60;67.84;102939.10;1788307;80;21286;-47
2020/12/16 17:33:23;;;;;;;21.52;17.25;;;;;;;7.74;66.80;102939.02;1788482;80;21112;-46
2020/12/16 17:35:52;;;;;;;23.85;18.10;;;;;;;6.77;69.46;102953.66;1788207;80;21414;-46
2020/12/16 17:38:20;;;;;;;29.63;19.85;;;;;;;6.33;70.98;102951.47;1788257;80;21274;-46
2020/12/16 17:40:48;;;;;;;27.65;19.23;;;;;;;6.20;71.50;102950.20;1788259;79;21277;-46
2020/12/16 17:43:16;;;;;;;27.48;17.90;;;;;;;6.33;71.33;102946.30;1788409;80;21139;-46
2020/12/16 17:45:45;;;;;;;24.72;18.05;;;;;;;6.81;69.42;102948.16;1788249;80;21147;-46
2020/12/16 17:48:22;;;;;;;25.12;17.80;;;;;;;6.85;69.13;102946.11;1788352;80;21310;-46
2020/12/16 17:50:53;;;;;;;26.60;18.12;;;;;;;6.84;68.85;102949.55;1788251;80;21273;-46
2020/12/16 17:53:22;;;;;;;25.05;17.77;;;;;;;6.81;68.68;102944.27;1788393;80;21607;-46
2020/12/16 17:55:54;;;;;;;22.80;16.42;;;;;;;6.78;68.47;102949.38;1788245;80;21290;-48
2020/12/16 17:58:22;;;;;;;20.92;16.17;;;;;;;6.72;68.65;102951.80;1784441;80;21136;-46
2020/12/16 18:00:52;;;;;;;23.85;16.87;;;;;;;6.52;68.60;102954.66;1788334;79;21159;-47
2020/12/16 18:03:20;;;;;;;26.12;17.48;;;;;;;6.53;68.83;102956.41;1788309;80;21269;-47
2020/12/16 18:05:51;;;;;;;26.68;17.85;;;;;;;6.50;68.77;102956.73;1788202;80;21317;-47
2020/12/16 18:08:19;;;;;;;23.95;17.40;;;;;;;6.46;68.80;102954.89;1788562;80;21168;-47
2020/12/16 18:10:50;;;;;;;24.57;16.25;;;;;;;6.38;68.98;102958.55;1788439;80;21707;-47
2020/12/16 18:13:20;;;;;;;24.10;16.55;;;;;;;6.36;69.20;102955.05;1788203;80;21147;-47
2020/12/16 18:15:48;;;;;;;23.45;16.20;;;;;;;6.38;69.19;102955.97;1703934;83;21363;-47
2020/12/16 18:18:16;;;;;;;25.97;17.45;;;;;;;6.38;69.18;102956.38;1703815;84;21585;-46
2020/12/16 18:20:45;;;;;;;25.27;17.25;;;;;;;6.36;69.21;102962.80;1703972;84;21201;-47
2020/12/16 18:23:13;;;;;;;26.42;18.67;;;;;;;6.41;69.24;102956.04;1703764;83;21325;-47
2020/12/16 18:25:41;;;;;;;27.07;18.77;;;;;;;6.47;69.31;102952.34;1717723;83;21158;-47
2020/12/16 18:28:19;;;;;;;24.00;19.35;;;;;;;6.59;69.29;102957.02;1802001;79;28043;-45
2020/12/16 18:30:47;;;;;;;25.15;17.67;;;;;;;6.68;69.36;102955.13;1788293;80;21266;-46
2020/12/16 18:33:20;;;;;;;24.45;17.37;;;;;;;6.82;68.75;102947.34;1784168;80;21140;-46
2020/12/16 18:35:47;;;;;;;26.05;17.90;;;;;;;6.86;68.46;102958.23;1788517;80;21116;-46
2020/12/16 18:38:17;;;;;;;25.77;16.80;;;;;;;6.77;68.78;102956.25;1788193;80;21163;-46
2020/12/16 18:40:47;;;;;;;27.45;18.12;;;;;;;6.78;68.77;102957.14;1674373;85;21182;-46
2020/12/16 18:43:16;;;;;;;26.65;18.12;;;;;;;6.79;68.32;102961.46;1674114;86;21336;-46
2020/12/16 18:45:44;;;;;;;25.90;17.92;;;;;;;6.76;68.02;102962.25;1674228;86;21180;-46
2020/12/16 18:48:12;;;;;;;28.23;16.93;;;;;;;6.70;68.25;102963.80;1674051;86;21421;-46
2020/12/16 18:50:41;;;;;;;24.20;16.95;;;;;;;6.69;67.96;102964.63;1674054;86;21190;-46
2020/12/16 18:53:11;;;;;;;23.30;15.70;;;;;;;6.61;68.10;102963.52;1674097;86;21328;-46
2020/12/16 18:55:41;;;;;;;21.45;15.43;;;;;;;6.50;68.17;102965.38;1674124;86;21254;-46
2020/12/16 18:58:09;;;;;;;22.80;16.02;;;;;;;6.51;68.16;102968.85;1674087;86;21372;-46
2020/12/16 19:00:39;;;;;;;22.07;14.47;;;;;;;6.51;67.77;102966.27;1674074;86;21312;-46
2020/12/16 19:03:14;;;;;;;24.47;17.25;;;;;;;6.33;68.80;102964.39;1781013;79;22910;-46
2020/12/16 19:05:43;;;;;;;27.42;16.62;;;;;;;6.26;68.99;102964.65;1754042;82;21593;-46
2020/12/16 19:08:14;;;;;;;20.20;14.80;;;;;;;6.75;67.70;102966.09;1753892;81;21295;-46
2020/12/16 19:10:41;;;;;;;16.87;12.65;;;;;;;7.15;66.36;102959.92;1754086;82;21176;-46
2020/12/16 19:13:09;;;;;;;19.25;13.68;;;;;;;7.24;65.83;102967.50;1754007;82;21152;-45
2020/12/16 19:15:39;;;;;;;21.35;14.38;;;;;;;6.78;67.07;102973.52;1753714;82;21306;-45
2020/12/16 19:18:07;;;;;;;22.35;15.18;;;;;;;6.73;67.28;102975.52;1754135;82;21228;-46
2020/12/16 19:20:35;;;;;;;31.73;18.15;;;;;;;6.71;67.45;102975.89;1753943;82;21117;-46
2020/12/16 19:23:03;;;;;;;28.60;17.07;;;;;;;6.71;67.46;102976.78;1753972;82;21164;-47
2020/12/16 19:25:32;;;;;;;24.65;15.03;;;;;;;6.74;67.57;102977.29;1753906;82;21323;-46
2020/12/16 19:28:00;;;;;;;22.98;14.23;;;;;;;6.76;67.59;102978.21;1753728;82;21267;-46
2020/12/16 19:30:29;;;;;;;32.85;19.27;;;;;;;6.82;67.51;102982.27;1753840;82;21207;-45
2020/12/16 19:32:57;;;;;;;20.70;14.18;;;;;;;6.85;67.43;102978.45;1753832;80;21282;-45
2020/12/16 19:35:26;;;;;;;20.17;15.15;;;;;;;6.87;67.11;102978.08;1749558;82;21121;-45
2020/12/16 19:37:55;;;;;;;26.27;17.00;;;;;;;6.56;67.77;102978.91;1754024;82;21314;-45
2020/12/16 19:40:24;;;;;;;28.55;19.07;;;;;;;6.40;68.38;102982.75;1753781;82;21120;-46
2020/12/16 19:42:53;;;;;;;19.82;15.30;;;;;;;6.35;68.62;102981.72;1753862;82;21116;-46
2020/12/16 19:45:21;;;;;;;18.40;14.15;;;;;;;6.37;68.87;102986.92;1753763;82;21295;-46
2020/12/16 19:47:49;;;;;;;18.80;14.28;;;;;;;6.40;68.95;102989.22;1753810;82;21149;-46
2020/12/16 19:50:18;;;;;;;22.58;15.98;;;;;;;6.43;68.90;102984.12;1753719;82;21315;-46
2020/12/16 19:52:50;;;;;;;19.55;14.58;;;;;;;6.46;68.77;102984.63;1753743;82;21165;-46
2020/12/16 19:55:18;;;;;;;18.07;14.47;;;;;;;6.79;67.73;102987.34;1753993;82;21153;-46
2020/12/16 19:57:46;;;;;;;18.55;14.05;;;;;;;6.86;67.51;102986.70;1753725;82;21283;-46
2020/12/16 20:00:15;;;;;;;17.30;12.75;;;;;;;6.91;67.22;102989.86;1753716;82;21323;-46
2020/12/16 20:02:43;;;;;;;17.02;11.78;;;;;;;6.90;66.85;102988.54;1754319;80;21549;-45
2020/12/16 20:05:12;;;;;;;15.65;11.45;;;;;;;6.77;67.03;102990.30;1754681;81;21157;-46
2020/12/16 20:07:40;;;;;;;15.60;10.05;;;;;;;6.81;66.95;102997.31;1754662;82;21152;-46
2020/12/16 20:10:09;;;;;;;16.50;11.73;;;;;;;6.54;67.48;102993.09;1754666;82;21596;-46
2020/12/16 20:12:38;;;;;;;12.98;9.50;;;;;;;6.10;69.38;102992.11;1754931;82;21156;-46
2020/12/16 20:15:08;;;;;;;12.50;9.40;;;;;;;6.04;69.77;102999.67;1753989;82;21152;-45
2020/12/16 20:17:37;;;;;;;13.05;9.68;;;;;;;6.57;68.26;102999.63;1754121;80;21169;-45
2020/12/16 20:20:06;;;;;;;12.20;9.28;;;;;;;6.76;67.21;102997.62;1753996;82;21145;-45
2020/12/16 20:22:35;;;;;;;11.85;8.65;;;;;;;6.78;67.06;102992.07;1753985;82;21149;-46
2020/12/16 20:25:06;;;;;;;11.00;8.33;;;;;;;6.78;66.97;102993.36;1753985;82;21200;-46
2020/12/16 20:27:36;;;;;;;9.65;7.50;;;;;;;6.80;67.03;102991.70;1727857;83;21190;-46
2020/12/16 20:30:10;;;;;;;10.90;8.88;;;;;;;6.85;66.72;102993.98;1781096;79;22911;-46
2020/12/16 20:32:41;;;;;;;12.78;8.70;;;;;;;6.82;66.66;103000.38;1754170;82;21156;-46
2020/12/16 20:35:10;;;;;;;13.70;9.43;;;;;;;6.78;66.60;102998.54;1754090;81;21318;-46
2020/12/16 20:37:45;;;;;;;10.48;8.08;;;;;;;6.80;66.75;102996.43;1754012;82;21571;-46
2020/12/16 20:40:14;;;;;;;9.88;7.75;;;;;;;6.82;66.72;102996.05;1753756;80;21298;-45
2020/12/16 20:42:43;;;;;;;8.23;6.50;;;;;;;6.82;66.69;102999.09;1753911;82;21310;-46
2020/12/16 20:45:12;;;;;;;9.48;6.85;;;;;;;6.84;66.70;102993.54;1753693;82;21287;-46
2020/12/16 20:47:40;;;;;;;8.50;6.40;;;;;;;6.87;66.47;102996.20;1753730;82;21152;-46
2020/12/16 20:50:09;;;;;;;9.18;7.08;;;;;;;6.85;66.52;103002.63;1753930;81;21156;-46
2020/12/16 20:52:38;;;;;;;7.20;6.25;;;;;;;6.85;66.43;102995.28;1754005;82;21286;-45
2020/12/16 20:55:07;;;;;;;6.90;6.17;;;;;;;6.61;67.18;102999.73;1753751;82;21152;-45
2020/12/16 20:57:36;;;;;;;7.95;6.33;;;;;;;6.48;67.45;102994.61;1753992;82;21152;-46
2020/12/16 21:00:09;;;;;;;8.98;6.65;;;;;;;6.35;67.75;102994.64;1754125;82;21612;-45
2020/12/16 21:02:38;;;;;;;7.72;6.58;;;;;;;6.24;67.89;102996.04;1754038;82;21572;-46
2020/12/16 21:05:08;;;;;;;6.42;5.67;;;;;;;6.18;68.12;102993.23;1753952;82;21604;-47
2020/12/16 21:07:38;;;;;;;8.78;6.33;;;;;;;6.19;68.38;102994.12;1754118;82;21149;-46
2020/12/16 21:10:06;;;;;;;8.00;6.37;;;;;;;6.17;68.58;102987.61;1753715;82;21141;-47
2020/12/16 21:12:34;;;;;;;7.67;6.12;;;;;;;6.21;68.67;102986.88;1753916;82;21136;-46
2020/12/16 21:15:02;;;;;;;6.90;6.15;;;;;;;6.21;68.65;102985.59;1753737;81;21117;-47
2020/12/16 21:17:31;;;;;;;9.48;7.05;;;;;;;6.21;68.58;102981.70;1754147;80;21172;-47
2020/12/16 21:19:59;;;;;;;8.68;6.60;;;;;;;6.19;68.72;102979.49;1753738;82;21156;-46
2020/12/16 21:22:28;;;;;;;7.85;6.15;;;;;;;6.19;68.81;102982.48;1753730;82;21160;-47
2020/12/16 21:24:55;;;;;;;8.28;6.75;;;;;;;6.21;69.06;102980.82;1753701;82;21121;-47
2020/12/16 21:27:24;;;;;;;8.55;6.62;;;;;;;6.24;69.12;102979.23;1754230;82;21177;-46
2020/12/16 21:29:55;;;;;;;8.13;6.12;;;;;;;6.27;69.11;102983.59;1743434;81;21141;-46
2020/12/16 21:32:24;;;;;;;7.12;6.30;;;;;;;6.27;69.09;102979.72;1740576;82;21161;-46
2020/12/16 21:34:56;;;;;;;8.13;6.83;;;;;;;6.25;69.06;102974.91;1737875;82;21185;-46
2020/12/16 21:37:24;;;;;;;8.05;6.53;;;;;;;6.26;69.22;102972.81;1740412;81;21308;-46
2020/12/16 21:42:23;;;;;;;8.83;7.42;;;;;;;6.33;69.22;102957.52;1714616;83;21601;-46
2020/12/16 21:44:51;;;;;;;11.65;8.38;;;;;;;6.39;69.09;102950.35;1714979;84;21153;-46
2020/12/16 21:47:20;;;;;;;10.98;8.40;;;;;;;6.41;68.99;102954.75;1714744;82;21595;-46
2020/12/16 21:49:50;;;;;;;9.13;7.33;;;;;;;6.42;68.92;102952.64;1714676;83;21743;-47
2020/12/16 21:52:18;;;;;;;8.23;6.97;;;;;;;6.40;69.06;102949.13;1714623;84;21152;-47
2020/12/16 21:54:48;;;;;;;7.83;7.03;;;;;;;6.41;69.17;102949.58;1714621;83;21220;-46
2020/12/16 21:57:23;;;;;;;9.63;7.42;;;;;;;6.46;69.35;102951.90;1820019;79;22833;-45
2020/12/16 21:59:51;;;;;;;7.95;6.70;;;;;;;6.44;69.31;102953.56;1793316;80;21152;-46
2020/12/16 22:02:21;;;;;;;8.95;6.67;;;;;;;6.47;69.24;102951.05;1793262;80;21278;-47
2020/12/16 22:04:49;;;;;;;8.60;7.08;;;;;;;6.48;69.24;102950.23;1793296;80;21184;-45
2020/12/16 22:07:18;;;;;;;7.58;6.72;;;;;;;6.51;69.30;102955.92;1793326;80;21187;-45
2020/12/16 22:09:47;;;;;;;7.85;6.35;;;;;;;6.54;69.46;102952.11;1793395;80;21140;-46
2020/12/16 22:12:16;;;;;;;7.28;6.12;;;;;;;6.57;69.58;102950.48;1793404;80;21124;-45
2020/12/16 22:14:46;;;;;;;7.33;5.60;;;;;;;6.62;69.55;102945.86;1793354;80;21155;-46
2020/12/16 22:17:14;;;;;;;8.40;6.15;;;;;;;6.63;69.52;102948.52;1793558;80;21109;-45
2020/12/16 22:19:44;;;;;;;7.92;6.53;;;;;;;6.66;69.61;102945.15;1793476;80;21164;-46
2020/12/16 22:22:16;;;;;;;6.60;5.67;;;;;;;6.71;69.66;102944.44;1793407;80;21160;-46
2020/12/16 22:24:44;;;;;;;9.18;6.37;;;;;;;6.74;69.80;102940.62;1739282;80;21290;-46
2020/12/16 22:27:15;;;;;;;6.70;5.35;;;;;;;6.79;69.81;102936.88;1793243;80;21152;-46
2020/12/16 22:29:43;;;;;;;6.67;5.67;;;;;;;6.82;69.73;102933.10;1793606;80;21164;-45
2020/12/16 22:32:12;;;;;;;8.38;6.55;;;;;;;6.87;69.59;102931.50;1793291;80;21148;-46
2020/12/16 22:34:43;;;;;;;7.08;5.28;;;;;;;6.89;69.56;102935.01;1793380;80;21128;-46
2020/12/16 22:37:12;;;;;;;7.47;5.55;;;;;;;6.92;69.55;102930.81;1725833;83;21184;-46
2020/12/16 22:39:50;;;;;;;;;;;;;;;;;;;;;
2020/12/16 22:42:15;;;;;;;7.90;5.30;;;;;;;7.07;69.36;102919.97;1781180;79;22923;-46
2020/12/16 22:44:44;;;;;;;7.78;5.65;;;;;;;7.06;69.23;102922.13;1753773;82;21125;-50
2020/12/16 22:47:12;;;;;;;5.90;5.17;;;;;;;7.08;69.01;102921.74;1753757;81;21299;-46
2020/12/16 22:49:40;;;;;;;6.35;5.33;;;;;;;7.08;69.05;102919.16;1753833;82;21286;-46
2020/12/16 22:52:08;;;;;;;6.00;5.37;;;;;;;7.08;69.03;102921.74;1753879;82;21152;-46
2020/12/16 22:54:36;;;;;;;6.65;5.60;;;;;;;7.09;69.12;102918.34;1754027;81;21573;-46
2020/12/16 22:57:06;;;;;;;7.92;5.50;;;;;;;7.12;69.11;102923.17;1753762;82;21161;-46
2020/12/16 22:59:35;;;;;;;7.95;6.45;;;;;;;7.03;69.13;102927.20;1754052;82;21124;-46
2020/12/16 23:02:04;;;;;;;7.03;5.90;;;;;;;7.17;68.90;102929.77;1753724;82;21286;-46
2020/12/16 23:04:32;;;;;;;7.97;5.55;;;;;;;7.21;68.87;102929.02;1753739;82;21306;-45
2020/12/16 23:07:00;;;;;;;6.45;5.70;;;;;;;7.23;68.86;102924.30;1753729;82;21148;-46
2020/12/16 23:09:30;;;;;;;7.10;5.55;;;;;;;7.27;68.83;102926.58;1753725;82;21298;-46
2020/12/16 23:11:58;;;;;;;6.58;5.45;;;;;;;7.21;69.06;102922.09;1753761;82;21180;-46
2020/12/16 23:14:26;;;;;;;6.90;5.47;;;;;;;7.33;68.68;102915.09;1753951;82;21201;-47
2020/12/16 23:16:55;;;;;;;7.15;5.45;;;;;;;7.37;68.36;102912.62;1753751;82;21169;-46
2020/12/16 23:19:24;;;;;;;7.03;5.25;;;;;;;7.34;68.40;102910.34;1753681;82;21149;-47
2020/12/16 23:21:55;;;;;;;5.83;4.83;;;;;;;7.39;68.29;102910.95;1753884;82;21161;-47
2020/12/16 23:24:23;;;;;;;6.00;4.85;;;;;;;7.44;68.18;102916.22;1753762;82;21125;-47
2020/12/16 23:26:53;;;;;;;6.47;4.70;;;;;;;7.48;68.03;102916.75;1709455;84;21173;-47
2020/12/16 23:29:31;;;;;;;5.28;4.65;;;;;;;7.54;67.83;102909.16;1820013;79;22841;-46
2020/12/16 23:31:59;;;;;;;7.30;6.00;;;;;;;7.49;67.66;102915.92;1793334;80;21144;-46
2020/12/16 23:34:27;;;;;;;7.15;4.87;;;;;;;6.79;69.87;102926.53;1793844;80;21289;-46
2020/12/16 23:36:55;;;;;;;6.28;5.03;;;;;;;6.69;70.34;102933.17;1793426;80;21163;-46
2020/12/16 23:39:23;;;;;;;6.28;5.22;;;;;;;6.67;70.54;102930.07;1793535;80;21192;-46
2020/12/16 23:41:51;;;;;;;7.70;5.97;;;;;;;6.66;70.69;102936.09;1793330;80;21201;-46
2020/12/16 23:44:20;;;;;;;6.33;5.30;;;;;;;6.63;70.70;102937.28;1793204;80;21603;-46
2020/12/16 23:46:51;;;;;;;6.50;5.75;;;;;;;6.61;70.79;102938.95;1793430;80;21160;-46
2020/12/16 23:49:19;;;;;;;6.20;5.08;;;;;;;6.59;70.92;102939.77;1793264;80;21171;-46
2020/12/16 23:51:47;;;;;;;6.08;5.10;;;;;;;6.58;71.05;102936.73;1793299;80;21148;-46
2020/12/16 23:54:15;;;;;;;6.58;5.55;;;;;;;6.59;71.07;102928.13;1793380;80;21151;-46
2020/12/16 23:56:44;;;;;;;6.47;5.50;;;;;;;6.62;71.11;102927.75;1793277;80;21148;-46
2020/12/16 23:59:12;;;;;;;8.48;6.25;;;;;;;6.62;71.13;102926.45;1793477;80;21191;-46
